createdAt,value
2023-04-20T00:02:02.725Z,101059.94
2023-04-20T00:04:29.620Z,101063.59
2023-04-20T00:06:55.989Z,101059.69
2023-04-20T00:09:23.032Z,101060.91
2023-04-20T00:11:49.331Z,101056.53
2023-04-20T00:14:16.214Z,101048.88
2023-04-20T00:16:42.635Z,101034.44
2023-04-20T00:19:09.310Z,101032.81
2023-04-20T00:21:35.647Z,101035.94
2023-04-20T00:24:01.965Z,101044.09
2023-04-20T00:26:28.289Z,101041.81
2023-04-20T00:28:54.618Z,101041.81
2023-04-20T00:31:21.090Z,101035.66
2023-04-20T00:33:48.312Z,101030.94
2023-04-20T00:36:14.750Z,101055.69
2023-04-20T00:38:41.138Z,101028.03
2023-04-20T00:41:07.465Z,101037.31
2023-04-20T00:43:33.796Z,101034.75
2023-04-20T00:46:00.173Z,101029.91
2023-04-20T00:48:26.524Z,101028.09
2023-04-20T00:50:53.069Z,101028.19
2023-04-20T00:53:19.561Z,101015.03
2023-04-20T00:55:46.198Z,101019.50
2023-04-20T00:58:12.637Z,101018.28
2023-04-20T01:00:39.580Z,101011.91
2023-04-20T01:03:07.629Z,101011.97
2023-04-20T01:05:34.242Z,101016.09
2023-04-20T01:08:00.540Z,101012.19
2023-04-20T01:10:26.847Z,101005.31
2023-04-20T01:12:53.160Z,101006.41
2023-04-20T01:15:19.479Z,101004.22
2023-04-20T01:17:45.869Z,101009.06
2023-04-20T01:20:12.421Z,100998.78
2023-04-20T01:22:49.649Z,101001.41
2023-04-20T01:25:16.922Z,101003.06
2023-04-20T01:27:43.722Z,100991.78
2023-04-20T01:30:10.738Z,100996.03
2023-04-20T01:32:37.341Z,100986.06
2023-04-20T01:35:04.391Z,100982.31
2023-04-20T01:37:30.948Z,100981.38
2023-04-20T01:39:57.553Z,100977.94
2023-04-20T01:42:24.167Z,100985.75
2023-04-20T01:44:50.482Z,100994.31
2023-04-20T01:47:16.792Z,100979.75
2023-04-20T01:49:43.095Z,100970.66
2023-04-20T01:52:09.526Z,100970.22
2023-04-20T01:54:35.844Z,100968.41
2023-04-20T01:57:02.135Z,100973.22
2023-04-20T01:59:28.469Z,100971.16
2023-04-20T02:01:54.815Z,100965.03
2023-04-20T02:04:21.476Z,100974.81
2023-04-20T02:06:47.820Z,100972.47
2023-04-20T02:09:14.133Z,100964.81
2023-04-20T02:11:40.459Z,100967.16
2023-04-20T02:14:06.853Z,100965.97
2023-04-20T02:16:33.344Z,100968.28
2023-04-20T02:18:59.689Z,100969.69
2023-04-20T02:21:25.998Z,100955.53
2023-04-20T02:23:52.291Z,100963.22
2023-04-20T02:26:18.617Z,100957.22
2023-04-20T02:28:44.949Z,100953.72
2023-04-20T02:31:11.284Z,100954.25
2023-04-20T02:33:37.699Z,100954.75
2023-04-20T02:36:04.327Z,100951.53
2023-04-20T02:38:30.634Z,100944.06
2023-04-20T02:40:56.952Z,100957.41
2023-04-20T02:43:23.350Z,100953.88
2023-04-20T02:45:49.687Z,100946.00
2023-04-20T02:48:15.977Z,100943.53
2023-04-20T02:50:42.892Z,100945.69
2023-04-20T02:53:09.190Z,100941.81
2023-04-20T02:55:35.665Z,100942.44
2023-04-20T02:58:02.422Z,100943.75
2023-04-20T03:00:28.743Z,100943.06
2023-04-20T03:02:55.160Z,100947.97
2023-04-20T03:05:21.733Z,100941.34
2023-04-20T03:07:48.046Z,100942.00
2023-04-20T03:10:14.337Z,100932.78
2023-04-20T03:12:40.646Z,100925.75
2023-04-20T03:15:07.583Z,100929.47
2023-04-20T03:17:33.901Z,100922.47
2023-04-20T03:20:00.236Z,100925.50
2023-04-20T03:22:26.549Z,100924.69
2023-04-20T03:24:53.572Z,100927.13
2023-04-20T03:27:20.080Z,100919.81
2023-04-20T03:29:46.382Z,100922.19
2023-04-20T03:32:12.715Z,100924.22
2023-04-20T03:34:39.062Z,100914.47
2023-04-20T03:37:05.386Z,100913.00
2023-04-20T03:39:31.686Z,100905.28
2023-04-20T03:41:57.999Z,100902.47
2023-04-20T03:44:24.384Z,100902.00
2023-04-20T03:46:50.690Z,100900.03
2023-04-20T03:49:17.322Z,100897.19
2023-04-20T03:51:43.898Z,100894.94
2023-04-20T03:54:10.200Z,100895.16
2023-04-20T03:56:36.488Z,100898.75
2023-04-20T03:59:02.818Z,100897.53
2023-04-20T04:01:29.121Z,100906.09
2023-04-20T04:03:55.607Z,100907.22
2023-04-20T04:06:22.162Z,100913.75
2023-04-20T04:08:48.465Z,100914.00
2023-04-20T04:11:14.799Z,100918.88
2023-04-20T04:13:41.100Z,100918.06
2023-04-20T04:16:07.537Z,100920.53
2023-04-20T04:18:33.854Z,100928.00
2023-04-20T04:21:00.193Z,100921.56
2023-04-20T04:23:26.522Z,100932.91
2023-04-20T04:25:52.834Z,100932.50
2023-04-20T04:28:19.134Z,100921.91
2023-04-20T04:30:46.284Z,100925.34
2023-04-20T04:33:12.563Z,100929.81
2023-04-20T04:35:38.907Z,100920.84
2023-04-20T04:38:05.236Z,100924.22
2023-04-20T04:40:31.535Z,100923.13
2023-04-20T04:42:57.838Z,100923.94
2023-04-20T04:45:24.163Z,100917.03
2023-04-20T04:47:50.634Z,100915.34
2023-04-20T04:50:17.021Z,100921.13
2023-04-20T04:52:43.353Z,100933.41
2023-04-20T04:55:10.010Z,100923.44
2023-04-20T04:57:36.505Z,100930.75
2023-04-20T05:00:02.945Z,100930.53
2023-04-20T05:02:29.408Z,100937.28
2023-04-20T05:04:55.928Z,100933.31
2023-04-20T05:07:22.344Z,100929.81
2023-04-20T05:09:48.665Z,100929.78
2023-04-20T05:12:14.977Z,100932.28
2023-04-20T05:14:41.288Z,100941.88
2023-04-20T05:17:07.633Z,100934.88
2023-04-20T05:19:33.950Z,100940.00
2023-04-20T05:22:00.276Z,100937.81
2023-04-20T05:24:27.076Z,100932.66
2023-04-20T05:26:53.403Z,100932.72
2023-04-20T05:29:19.917Z,100933.56
2023-04-20T05:31:46.303Z,100936.09
2023-04-20T05:34:12.616Z,100936.41
2023-04-20T05:36:40.162Z,100942.53
2023-04-20T05:39:06.587Z,100942.53
2023-04-20T05:41:32.904Z,100938.69
2023-04-20T05:43:59.195Z,100942.84
2023-04-20T05:46:25.555Z,100941.66
2023-04-20T05:48:51.901Z,100942.19
2023-04-20T05:51:18.250Z,100947.84
2023-04-20T05:53:44.580Z,100949.69
2023-04-20T05:56:10.940Z,100944.47
2023-04-20T05:58:37.567Z,100942.78
2023-04-20T06:01:04.918Z,100937.66
2023-04-20T06:03:31.337Z,100939.44
2023-04-20T06:05:57.951Z,100938.88
2023-04-20T06:08:24.359Z,100930.28
2023-04-20T06:10:56.852Z,100939.88
2023-04-20T06:13:23.287Z,100948.66
2023-04-20T06:15:50.039Z,100941.56
2023-04-20T06:18:16.377Z,100946.91
2023-04-20T06:20:43.931Z,100952.28
2023-04-20T06:23:10.426Z,100945.06
2023-04-20T06:25:36.765Z,100944.28
2023-04-20T06:28:03.936Z,100937.13
2023-04-20T06:30:30.344Z,100950.53
2023-04-20T06:32:56.785Z,100942.50
2023-04-20T06:35:23.138Z,100953.53
2023-04-20T06:37:49.471Z,100950.03
2023-04-20T06:40:16.331Z,100957.50
2023-04-20T06:42:42.789Z,100949.16
2023-04-20T06:45:09.491Z,100950.13
2023-04-20T06:47:35.963Z,100950.91
2023-04-20T06:50:04.075Z,100944.72
2023-04-20T06:52:30.385Z,100949.06
2023-04-20T06:54:58.482Z,100949.94
2023-04-20T06:57:24.796Z,100943.09
2023-04-20T06:59:51.112Z,100948.44
2023-04-20T07:02:17.581Z,100941.38
2023-04-20T07:04:44.020Z,100938.53
2023-04-20T07:07:10.355Z,100938.97
2023-04-20T07:09:36.695Z,100944.19
2023-04-20T07:12:03.195Z,100935.41
2023-04-20T07:14:29.508Z,100949.44
2023-04-20T07:16:55.940Z,100942.56
2023-04-20T07:19:22.273Z,100943.53
2023-04-20T07:21:48.643Z,100932.56
2023-04-20T07:24:15.001Z,100936.13
2023-04-20T07:26:41.319Z,100932.25
2023-04-20T07:29:07.633Z,100932.25
2023-04-20T07:31:35.383Z,100934.56
2023-04-20T07:34:01.989Z,100929.22
2023-04-20T07:36:28.353Z,100930.44
2023-04-20T07:38:54.719Z,100919.84
2023-04-20T07:41:21.019Z,100921.13
2023-04-20T07:43:47.343Z,100919.44
2023-04-20T07:46:22.777Z,100925.63
2023-04-20T07:48:49.293Z,100926.56
2023-04-20T07:51:15.906Z,100942.56
2023-04-20T07:53:42.635Z,100943.19
2023-04-20T07:56:08.966Z,100943.13
2023-04-20T07:58:35.290Z,100941.72
2023-04-20T08:01:01.608Z,100936.66
2023-04-20T08:03:28.161Z,100937.72
2023-04-20T08:05:54.589Z,100935.25
2023-04-20T08:08:21.014Z,100937.97
2023-04-20T08:10:47.371Z,100942.09
2023-04-20T08:13:13.666Z,100946.53
2023-04-20T08:15:39.989Z,100934.66
2023-04-20T08:18:06.397Z,100936.09
2023-04-20T08:22:59.915Z,100927.50
2023-04-20T08:25:27.341Z,100928.84
2023-04-20T08:27:53.710Z,100927.94
2023-04-20T08:30:20.018Z,100946.38
2023-04-20T08:32:46.396Z,100939.91
2023-04-20T08:35:12.764Z,100939.13
2023-04-20T08:37:39.145Z,100945.59
2023-04-20T08:40:06.139Z,100935.03
2023-04-20T08:42:32.527Z,100933.16
2023-04-20T08:44:58.862Z,100944.53
2023-04-20T08:47:27.827Z,100935.84
2023-04-20T08:49:54.153Z,100936.97
2023-04-20T08:52:20.494Z,100934.28
2023-04-20T08:54:56.180Z,100934.78
2023-04-20T08:57:23.500Z,100928.94
2023-04-20T08:59:49.805Z,100931.34
2023-04-20T09:02:16.240Z,100933.13
2023-04-20T09:04:42.735Z,100944.97
2023-04-20T09:07:20.311Z,100929.50
2023-04-20T09:10:00.519Z,100938.81
2023-04-20T09:12:29.021Z,100945.44
2023-04-20T09:14:55.403Z,100938.75
2023-04-20T09:17:33.503Z,100933.75
2023-04-20T09:20:00.240Z,100942.31
2023-04-20T09:22:34.089Z,100947.53
2023-04-20T09:25:00.917Z,100936.09
2023-04-20T09:27:27.455Z,100942.28
2023-04-20T09:30:01.614Z,100948.53
2023-04-20T09:32:28.432Z,100939.50
2023-04-20T09:34:54.986Z,100949.03
2023-04-20T09:37:21.368Z,100946.13
2023-04-20T09:39:47.671Z,100943.66
2023-04-20T09:42:15.593Z,100944.22
2023-04-20T09:44:43.162Z,100944.94
2023-04-20T09:47:17.587Z,100945.00
2023-04-20T09:49:45.308Z,100941.06
2023-04-20T09:52:13.001Z,100937.78
2023-04-20T09:54:39.453Z,100940.03
2023-04-20T09:57:05.781Z,100937.97
2023-04-20T09:59:33.368Z,100944.00
2023-04-20T10:01:59.881Z,100946.50
2023-04-20T10:04:26.571Z,100943.63
2023-04-20T10:06:55.007Z,100945.28
2023-04-20T10:09:25.793Z,100943.97
2023-04-20T10:11:54.618Z,100943.97
2023-04-20T10:14:26.190Z,100942.88
2023-04-20T10:17:01.039Z,100945.16
2023-04-20T10:19:44.790Z,100943.78
2023-04-20T10:22:26.453Z,100939.84
2023-04-20T10:24:52.768Z,100944.91
2023-04-20T10:27:20.357Z,100941.94
2023-04-20T10:29:47.452Z,100951.34
2023-04-20T10:32:23.717Z,100942.44
2023-04-20T10:35:06.949Z,100938.19
2023-04-20T10:37:33.578Z,100939.03
2023-04-20T10:40:00.172Z,100928.50
2023-04-20T10:42:26.489Z,100933.47
2023-04-20T10:44:54.279Z,100931.66
2023-04-20T10:47:28.762Z,100928.41
2023-04-20T10:49:55.301Z,100924.66
2023-04-20T10:52:35.411Z,100925.88
2023-04-20T10:55:02.302Z,100926.19
2023-04-20T10:57:28.641Z,100921.41
2023-04-20T10:59:54.974Z,100912.34
2023-04-20T11:02:21.567Z,100917.53
2023-04-20T11:04:47.990Z,100916.16
2023-04-20T11:07:14.481Z,100925.78
2023-04-20T11:09:40.844Z,100909.19
2023-04-20T11:12:09.315Z,100902.00
2023-04-20T11:14:38.092Z,100901.66
2023-04-20T11:17:05.673Z,100900.13
2023-04-20T11:19:34.625Z,100894.69
2023-04-20T11:22:02.330Z,100898.59
2023-04-20T11:24:30.818Z,100904.97
2023-04-20T11:26:57.572Z,100909.78
2023-04-20T11:29:33.767Z,100894.47
2023-04-20T11:32:08.697Z,100904.31
2023-04-20T11:34:37.260Z,100908.50
2023-04-20T11:37:11.197Z,100909.75
2023-04-20T11:39:38.040Z,100907.00
2023-04-20T11:42:04.872Z,100916.34
2023-04-20T11:44:31.223Z,100888.25
2023-04-20T11:46:57.726Z,100903.03
2023-04-20T11:49:25.750Z,100897.22
2023-04-20T11:51:52.074Z,100890.28
2023-04-20T11:54:18.932Z,100903.03
2023-04-20T11:56:45.994Z,100887.72
2023-04-20T11:59:12.477Z,100895.50
2023-04-20T12:01:38.813Z,100889.28
2023-04-20T12:04:05.600Z,100886.16
2023-04-20T12:06:32.625Z,100884.47
2023-04-20T12:08:59.568Z,100876.06
2023-04-20T12:11:25.907Z,100886.53
2023-04-20T12:13:52.452Z,100882.88
2023-04-20T12:16:18.828Z,100885.03
2023-04-20T12:18:45.178Z,100883.91
2023-04-20T12:21:11.511Z,100880.22
2023-04-20T12:23:37.802Z,100880.06
2023-04-20T12:26:06.158Z,100878.91
2023-04-20T12:28:32.808Z,100871.53
2023-04-20T12:30:59.275Z,100866.91
2023-04-20T12:33:25.646Z,100870.53
2023-04-20T12:35:52.020Z,100873.97
2023-04-20T12:38:18.338Z,100859.63
2023-04-20T12:40:44.717Z,100876.19
2023-04-20T12:43:11.065Z,100868.34
2023-04-20T12:45:37.372Z,100880.41
2023-04-20T12:48:04.007Z,100872.13
2023-04-20T12:50:30.409Z,100875.28
2023-04-20T12:52:56.752Z,100861.56
2023-04-20T12:55:23.159Z,100879.44
2023-04-20T12:57:49.467Z,100889.06
2023-04-20T13:00:16.114Z,100880.47
2023-04-20T13:02:42.573Z,100886.78
2023-04-20T13:05:09.522Z,100877.25
2023-04-20T13:07:35.873Z,100872.66
2023-04-20T13:10:02.375Z,100878.00
2023-04-20T13:12:28.700Z,100865.50
2023-04-20T13:14:54.992Z,100868.69
2023-04-20T13:17:21.309Z,100865.44
2023-04-20T13:19:49.273Z,100855.25
2023-04-20T13:22:18.758Z,100864.66
2023-04-20T13:24:45.752Z,100849.97
2023-04-20T13:27:12.135Z,100846.31
2023-04-20T13:29:38.502Z,100845.88
2023-04-20T13:32:05.074Z,100864.50
2023-04-20T13:34:31.421Z,100860.44
2023-04-20T13:36:57.771Z,100870.88
2023-04-20T13:39:24.257Z,100858.88
2023-04-20T13:41:50.649Z,100849.72
2023-04-20T13:44:17.267Z,100853.59
2023-04-20T13:46:45.516Z,100853.75
2023-04-20T13:49:13.485Z,100855.41
2023-04-20T13:51:40.538Z,100849.28
2023-04-20T13:54:06.946Z,100844.84
2023-04-20T13:56:34.192Z,100846.25
2023-04-20T13:59:00.919Z,100842.25
2023-04-20T14:01:27.261Z,100834.19
2023-04-20T14:03:53.720Z,100822.63
2023-04-20T14:06:20.131Z,100825.69
2023-04-20T14:08:46.439Z,100811.59
2023-04-20T14:11:12.803Z,100802.97
2023-04-20T14:13:39.512Z,100789.88
2023-04-20T14:16:10.808Z,100799.31
2023-04-20T14:18:37.462Z,100794.13
2023-04-20T14:21:04.909Z,100791.63
2023-04-20T14:23:31.276Z,100787.63
2023-04-20T14:25:57.880Z,100786.22
2023-04-20T14:28:24.416Z,100786.84
2023-04-20T14:30:50.746Z,100778.78
2023-04-20T14:33:17.272Z,100775.63
2023-04-20T14:35:43.646Z,100778.03
2023-04-20T14:38:09.959Z,100788.25
2023-04-20T14:40:36.280Z,100781.88
2023-04-20T14:43:02.620Z,100773.72
2023-04-20T14:45:29.080Z,100782.00
2023-04-20T14:47:56.601Z,100783.81
2023-04-20T14:50:24.900Z,100770.63
2023-04-20T14:52:53.851Z,100787.59
2023-04-20T14:55:20.825Z,100780.69
2023-04-20T14:57:47.132Z,100773.56
2023-04-20T15:00:13.762Z,100774.31
2023-04-20T15:02:40.286Z,100772.28
2023-04-20T15:05:11.185Z,100776.09
2023-04-20T15:07:37.765Z,100774.53
2023-04-20T15:10:04.575Z,100776.66
2023-04-20T15:12:30.931Z,100777.19
2023-04-20T15:14:57.251Z,100768.84
2023-04-20T15:17:23.617Z,100775.13
2023-04-20T15:19:50.008Z,100781.38
2023-04-20T15:22:16.331Z,100777.31
2023-04-20T15:24:42.676Z,100780.53
2023-04-20T15:27:08.972Z,100787.56
2023-04-20T15:29:35.794Z,100782.69
2023-04-20T15:32:02.146Z,100780.75
2023-04-20T15:34:28.694Z,100777.63
2023-04-20T15:36:55.051Z,100782.97
2023-04-20T15:39:21.349Z,100771.72
2023-04-20T15:41:47.641Z,100782.75
2023-04-20T15:44:13.963Z,100778.66
2023-04-20T15:46:40.290Z,100774.94
2023-04-20T15:49:06.642Z,100776.50
2023-04-20T15:51:33.050Z,100772.31
2023-04-20T15:53:59.353Z,100768.00
2023-04-20T15:56:25.680Z,100770.09
2023-04-20T15:58:52.038Z,100771.75
2023-04-20T16:01:19.128Z,100760.06
2023-04-20T16:03:46.471Z,100758.91
2023-04-20T16:06:13.736Z,100753.13
2023-04-20T16:08:40.060Z,100759.53
2023-04-20T16:11:06.444Z,100752.34
2023-04-20T16:13:32.892Z,100751.03
2023-04-20T16:15:59.277Z,100754.72
2023-04-20T16:18:25.648Z,100762.06
2023-04-20T16:20:51.983Z,100754.28
2023-04-20T16:23:18.321Z,100749.53
2023-04-20T16:25:45.893Z,100749.84
2023-04-20T16:28:12.177Z,100751.63
2023-04-20T16:30:38.504Z,100765.47
2023-04-20T16:33:04.872Z,100760.06
2023-04-20T16:35:31.216Z,100773.63
2023-04-20T16:37:57.558Z,100785.56
2023-04-20T16:40:23.872Z,100778.81
2023-04-20T16:42:50.240Z,100780.16
2023-04-20T16:45:16.671Z,100778.59
2023-04-20T16:47:43.034Z,100794.84
2023-04-20T16:50:10.386Z,100779.78
2023-04-20T16:52:36.699Z,100783.56
2023-04-20T16:55:03.049Z,100780.38
2023-04-20T16:57:29.367Z,100771.66
2023-04-20T16:59:55.694Z,100776.63
2023-04-20T17:02:22.182Z,100775.00
2023-04-20T17:04:48.599Z,100773.63
2023-04-20T17:07:14.892Z,100781.81
2023-04-20T17:09:41.183Z,100780.97
2023-04-20T17:12:07.515Z,100775.38
2023-04-20T17:14:33.840Z,100780.78
2023-04-20T17:17:00.236Z,100791.06
2023-04-20T17:19:26.687Z,100792.97
2023-04-20T17:21:53.002Z,100791.06
2023-04-20T17:24:19.455Z,100791.31
2023-04-20T17:26:45.966Z,100799.97
2023-04-20T17:29:12.370Z,100800.00
2023-04-20T17:31:38.665Z,100808.69
2023-04-20T17:34:04.985Z,100807.31
2023-04-20T17:36:31.266Z,100802.16
2023-04-20T17:38:57.561Z,100820.59
2023-04-20T17:41:23.848Z,100818.94
2023-04-20T17:43:53.222Z,100820.06
2023-04-20T17:46:19.570Z,100831.97
2023-04-20T17:48:45.919Z,100838.19
2023-04-20T17:51:15.397Z,100836.03
2023-04-20T17:53:41.709Z,100844.41
2023-04-20T17:56:08.080Z,100843.31
2023-04-20T17:58:34.443Z,100844.94
2023-04-20T18:01:00.808Z,100847.66
2023-04-20T18:03:27.390Z,100852.53
2023-04-20T18:05:54.398Z,100843.63
2023-04-20T18:08:20.814Z,100852.53
2023-04-20T18:10:47.245Z,100853.06
2023-04-20T18:13:13.540Z,100857.41
2023-04-20T18:15:39.993Z,100859.84
2023-04-20T18:18:06.501Z,100855.78
2023-04-20T18:20:32.984Z,100858.75
2023-04-20T18:22:59.650Z,100857.69
2023-04-20T18:25:26.202Z,100857.94
2023-04-20T18:27:52.536Z,100856.06
2023-04-20T18:30:18.890Z,100850.66
2023-04-20T18:32:45.240Z,100860.13
2023-04-20T18:35:11.672Z,100859.56
2023-04-20T18:37:38.007Z,100854.69
2023-04-20T18:40:04.944Z,100851.47
2023-04-20T18:42:31.249Z,100853.34
2023-04-20T18:44:57.601Z,100856.31
2023-04-20T18:47:23.980Z,100859.84
2023-04-20T18:49:50.744Z,100862.25
2023-04-20T18:52:18.539Z,100856.88
2023-04-20T18:54:44.873Z,100862.53
2023-04-20T18:57:11.189Z,100858.47
2023-04-20T18:59:37.486Z,100860.09
2023-04-20T19:02:03.935Z,100860.09
2023-04-20T19:04:30.363Z,100856.84
2023-04-20T19:06:56.659Z,100847.13
2023-04-20T19:09:22.993Z,100849.28
2023-04-20T19:11:50.080Z,100840.06
2023-04-20T19:14:16.778Z,100844.97
2023-04-20T19:16:43.445Z,100835.75
2023-04-20T19:19:09.810Z,100833.59
2023-04-20T19:21:36.134Z,100844.94
2023-04-20T19:24:02.479Z,100839.81
2023-04-20T19:26:28.838Z,100841.72
2023-04-20T19:28:55.181Z,100842.81
2023-04-20T19:31:21.553Z,100838.47
2023-04-20T19:33:47.896Z,100833.06
2023-04-20T19:36:14.451Z,100841.97
2023-04-20T19:38:40.853Z,100833.59
2023-04-20T19:41:07.257Z,100839.81
2023-04-20T19:43:33.650Z,100835.75
2023-04-20T19:46:01.077Z,100837.94
2023-04-20T19:48:27.636Z,100821.16
2023-04-20T19:50:55.034Z,100827.41
2023-04-20T19:53:21.344Z,100824.66
2023-04-20T19:55:47.678Z,100817.38
2023-04-20T19:58:13.972Z,100824.16
2023-04-20T20:00:40.338Z,100824.16
2023-04-20T20:03:06.823Z,100831.97
2023-04-20T20:05:34.020Z,100823.59
2023-04-20T20:08:00.392Z,100823.84
2023-04-20T20:10:26.842Z,100825.47
2023-04-20T20:12:53.147Z,100822.78
2023-04-20T20:15:19.606Z,100827.13
2023-04-20T20:17:45.997Z,100831.69
2023-04-20T20:20:12.376Z,100817.38
2023-04-20T20:22:38.776Z,100817.91
2023-04-20T20:25:05.425Z,100809.25
2023-04-20T20:27:31.756Z,100800.88
2023-04-20T20:29:58.066Z,100810.34
2023-04-20T20:32:24.602Z,100803.31
2023-04-20T20:34:50.926Z,100800.09
2023-04-20T20:37:17.250Z,100807.63
2023-04-20T20:39:43.536Z,100806.03
2023-04-20T20:42:09.852Z,100811.44
2023-04-20T20:44:36.157Z,100819.00
2023-04-20T20:47:02.598Z,100820.09
2023-04-20T20:49:28.933Z,100817.38
2023-04-20T20:51:55.465Z,100810.59
2023-04-20T20:54:21.883Z,100803.84
2023-04-20T20:56:48.233Z,100800.59
2023-04-20T20:59:14.692Z,100790.31
2023-04-20T21:01:41.192Z,100785.47
2023-04-20T21:04:07.786Z,100779.22
2023-04-20T21:06:34.204Z,100780.03
2023-04-20T21:09:00.529Z,100779.41
2023-04-20T21:11:26.859Z,100763.72
2023-04-20T21:13:53.186Z,100771.91
2023-04-20T21:16:19.714Z,100767.00
2023-04-20T21:18:46.087Z,100771.06
2023-04-20T21:21:12.582Z,100766.47
2023-04-20T21:23:38.943Z,100761.03
2023-04-20T21:26:05.225Z,100768.63
2023-04-20T21:28:31.524Z,100763.78
2023-04-20T21:30:57.861Z,100761.06
2023-04-20T21:33:24.246Z,100765.69
2023-04-20T21:35:50.575Z,100767.59
2023-04-20T21:38:16.874Z,100755.00
2023-04-20T21:40:43.186Z,100755.06
2023-04-20T21:43:09.530Z,100751.00
2023-04-20T21:45:35.976Z,100749.63
2023-04-20T21:48:02.315Z,100753.75
2023-04-20T21:50:28.666Z,100755.41
2023-04-20T21:52:55.024Z,100751.56
2023-04-20T21:55:21.512Z,100753.69
2023-04-20T21:57:47.871Z,100750.50
2023-04-20T22:00:14.412Z,100760.03
2023-04-20T22:02:41.113Z,100752.41
2023-04-20T22:05:07.900Z,100748.31
2023-04-20T22:07:34.329Z,100744.97
2023-04-20T22:10:01.008Z,100744.28
2023-04-20T22:12:38.278Z,100743.53
2023-04-20T22:15:14.956Z,100737.22
2023-04-20T22:17:42.361Z,100744.47
2023-04-20T22:20:10.329Z,100741.63
2023-04-20T22:22:38.084Z,100734.03
2023-04-20T22:25:05.751Z,100735.69
2023-04-20T22:27:33.313Z,100726.19
2023-04-20T22:29:59.706Z,100739.47
2023-04-20T22:32:26.269Z,100742.44
2023-04-20T22:34:52.697Z,100728.91
2023-04-20T22:37:18.993Z,100732.97
2023-04-20T22:39:45.511Z,100726.47
2023-04-20T22:42:11.901Z,100716.69
2023-04-20T22:44:38.239Z,100720.53
2023-04-20T22:47:04.640Z,100714.03
2023-04-20T22:49:31.024Z,100716.19
2023-04-20T22:51:57.339Z,100705.13
2023-04-20T22:54:26.445Z,100707.81
2023-04-20T22:56:52.794Z,100700.56
2023-04-20T22:59:19.412Z,100695.66
2023-04-20T23:01:45.979Z,100694.06
2023-04-20T23:04:12.496Z,100693.25
2023-04-20T23:06:38.885Z,100675.69
2023-04-20T23:09:05.199Z,100677.28
2023-04-20T23:11:31.527Z,100667.06
2023-04-20T23:13:57.816Z,100673.00
2023-04-20T23:16:24.173Z,100667.56
2023-04-20T23:18:50.508Z,100666.50
2023-04-20T23:21:16.820Z,100654.34
2023-04-20T23:23:43.143Z,100662.75
2023-04-20T23:26:09.439Z,100652.75
2023-04-20T23:28:35.807Z,100655.44
2023-04-20T23:31:02.109Z,100653.81
2023-04-20T23:33:28.453Z,100644.09
2023-04-20T23:35:54.743Z,100630.50
2023-04-20T23:38:21.060Z,100632.72
2023-04-20T23:40:47.580Z,100618.34
2023-04-20T23:43:13.903Z,100633.81
2023-04-20T23:45:40.260Z,100645.47
2023-04-20T23:48:06.891Z,100644.69
2023-04-20T23:50:33.483Z,100641.44
2023-04-20T23:52:59.796Z,100638.47
2023-04-20T23:55:26.088Z,100634.13
2023-04-20T23:57:52.392Z,100627.00
